Toowoomba, Queensland

2:53 AM AEST on May 29, 2015 (GMT +1000)
Newtown | | Change Station
CLOSE
Current Station
Personal Weather Station
Location: Toowoomba, QUEENSLAND
Elevation: 1919 ft
Nearby Weather Stations

Elev 1919 ft 27.54 °S, 151.94 °E | Updated 1 minute ago

Clear
Clear
53.1 °F
Feels Like 53.1 °F
N
0.0
Wind Variable Wind from NW
Gusts 0.6 mph

Today
High -- | Low -- °F
--% Chance of Precip.
Yesterday
High -- | Low -- °F
Precip. -- in
6:32 AM 5:06 PM
Waxing Gibbous, 77% visible
Pressure 30.21 in
Visibility 6.2 miles
Clouds
Dew Point 48 °F
Humidity 82%
Rainfall 0.00 in
Snow Depth Not available.
UV Not available.
Pollen Not available.
Air Quality Not available.
Flu Activity Not available.
METAR YBOK 281600Z AUTO 06007KT 9999 // NCD 11/10 Q1023

More Conditions Fewer Conditions

Pressure 30.21 in
Visibility 6.2 miles
Clouds
Dew Point 48 °F
Humidity 82%
Rainfall 0.00 in
Snow Depth Not available.
UV Not available.
Pollen Not available.
Air Quality Not available.
Flu Activity Not available.
METAR YBOK 281600Z AUTO 06007KT 9999 // NCD 11/10 Q1023

More Conditions Fewer Conditions

10-Day Weather Forecast

Almanac

Astronomy

May. 29, 2015 Rise Set
Actual Time
Civil Twilight
Nautical Twilight
Astronomical Twilight
Moon
Length of Visible Light
Length of Day
Tomorrow will be .
, % of the Moon is Illuminated

Today's Extremes

Country Highs Country Lows

Community

WunderPhotos

Upload Photos

1,825,004 photos uploaded!

WunderBlogs® & News

Nearby

Air Quality

  Air Quality AQ Index Pollutant
Not available.

Snow Depth

Station Depth Elevation

Earthquake Activity

City Distance Mag. Time & Date
Minimum magnitude displayed is 2.5.

Coastal Water Temperatures

Place Temperature

Stations

Nearby Weather Stations

Station Location Temp. Windchill Dew Point Humidity Wind Precip. Elev Updated Type